Greybull, WY

11:19 PM MDT on July 24, 2014 (GMT -0600)
South Big Horn County (KGEY) Elev 3934 ft | 44.52 °N, 108.08 °W | Change Station

Current weather conditions updated 26 minutes ago

Clear
Clear
79 °F
Feels Like 79 °F
N
10
Wind Variable Wind from NW

Tomorrow is forecast to be Much Cooler than today.

Today
High -- | Low -- °F
--% Chance of Precip.
Yesterday
High -- | Low -- °F
Precip. -- in
5:50 AM 8:46 PM
Waning Crescent, 3% visible
Pressure 29.73 in
Visibility 10.0 miles
Clouds Clear
Dew Point 44 °F
Humidity 29%
Rainfall 0.00 in
Snow Depth Not available.
UV 0 out of 12
Pollen 6.70 out of 12
Air Quality Not available.
Flu Activity Not available.
METAR KGEY 250453Z AUTO 32009KT 10SM CLR 26/07 A2988 RMK AO2 SLP066 T02610067

More Conditions Fewer Conditions

Pressure 29.73 in
Visibility 10.0 miles
Clouds Clear
Dew Point 44 °F
Humidity 29%
Rainfall 0.00 in
Snow Depth Not available.
UV 0 out of 12
Pollen 6.70 out of 12
Air Quality Not available.
Flu Activity Not available.
METAR KGEY 250453Z AUTO 32009KT 10SM CLR 26/07 A2988 RMK AO2 SLP066 T02610067

More Conditions Fewer Conditions

10-Day Weather Forecast

Almanac

Astronomy

Jul. 24, 2014 Rise Set
Actual Time 5:50 AM MDT 8:46 PM MDT
Civil Twilight 5:16 AM MDT 9:20 PM MDT
Nautical Twilight 4:32 AM MDT 10:04 PM MDT
Astronomical Twilight 3:40 AM MDT 10:55 PM MDT
Moon 4:01 AM MDT (7/24) 7:02 PM MDT (7/24)
Length of Visible Light 16h 04m
Length of Day
14h 56m
Tomorrow will be 2m 4s shorter.
Waning Crescent, 3% of the Moon is Illuminated
Jul 25
Waning Crescent
Jul 26
New
Aug 3
First Quarter
Aug 10
Full
Aug 17
Last Quarter

Yesterday's Extremes

State Highs State Lows

Community

WunderPhotos

Upload Photos

1,737,245 photos uploaded!

Nearby

Snow Depth

Station Depth Elevation
Bone Springs Divide 0 in 9350 ft
Burgess Junction 0 in 7880 ft
Hansen Sawmill 0 in 8360 ft
Marquette 0 in 8760 ft
Kirwin 0 in 9550 ft

Earthquake Activity

City Distance Mag. Time & Date
No recent earthquake activity has been reported nearby.
Minimum magnitude displayed is 2.5.

Coastal Water Temperatures

Place Temperature
No Stations Reporting

Nearby Weather Stations

Station Location Temp. Heat Index Dew Point Humidity Wind Precip. Elev Updated Type
West Basin, BASIN, WY 71.4 °F 75 °F 32 °F 23% SSW  at  0.0 mph 0.00 in / hr 3873 ft 11:14 PM MDT Normal
Basin, WY 70.6 °F 76 °F 39 °F 32% SW  at  0.0 mph 0.00 in / hr 4537 ft 11:18 PM MDT Normal

Show More Stations Show Fewer Stations